Tuesday, September 02, 2014
21:21 UTC
  |  Log In   |  Register Free
Airport Search:

Vidalia Regional Airport
(KVDI)

Vidalia Regional Airport Diagram
No Airport Diagram Available

FAA data valid effective July 24, 2014 until September 18, 2014 (unless otherwise noted).

 
 
 
 
 
 
 
 
 
 
 
 
 
 

Current Aviation Weather for Vidalia Regional Airport (KVDI)

The most recent METAR observation for KVDI was updated at: 1955 UTC
METAR Summary (Translated METAR)
KVDI
021955Z AUTO 06003KT 7SM SCT046 35/22 A3002 RMK AO2 LTG DSNT E AND S
KTBR
(36.6 nm NE from KVDI)
021955Z AUTO 15011G18KT 10SM TS SCT011 SCT041 BKN060 24/21 A3006 RMK AO2 LTG DSNT ALQS T02360209
TAF
No TAF information found within 50 nm of KVDI
  Airport Weather Conditions for KVDI

 Current Weather at VDI
91° F
Thunderstorm in Vicinity
Southeast winds at 10.4 mph
VDI NOAA Radar

Pressure: 30.00 in
Humidity: 56%
Wind: Southeast at 10.4 MPH (9 KT)
Dew Point: 73.4°F
Visibility: 7.00 mi


Airport Weather Forecast for KVDI

Translated METAR and TAF for KVDI
Translated METAR for KVDI (2115 UTC 02 September 2014)
found at http://aviationweather.gov/adds/metars/
 
METAR text: KVDI 022055Z AUTO 14008G18KT 7SM SCT044 31/22 A3002 RMK AO2 LTG DSNT ALQS
Conditions at: KVDI (VIDALIA MUNI , GA, US) observed 2055 UTC 02 September 2014
Temperature: 31.0°C (88°F)
Dewpoint: 22.0°C (72°F) [RH = 59%]
Pressure (altimeter): 30.02 inches Hg (1016.7 mb)
Winds: from the SE (140 degrees) at 9 MPH (8 knots; 4.2 m/s)
gusting to 21 MPH (18 knots; 9.4 m/s)
Visibility: 7 miles (11 km)
Ceiling: at least 12,000 feet AGL
Clouds: scattered clouds at 4400 feet AGL
Weather: automated observation with no human augmentation;
there may or may not be significant weather present at this time
Translated TAF for KVDI

There is no translated TAF available for this airport

Find All Airport Services Find A Hotel Find A Rental Car Find A Golf Course Find A Restaurant $100 Hamburger



FBO's on the Field
FBO Company Facility Photos Services Transportation Aviation Fuel Prices: Prices include tax
Catering Weather Repair Courtesy Rental Type 100LL JetA JetA+ MOGAS 8087
 
Vidalia Regional Airport

This FBO has not yet been rated
FS:Phillips66
Last Updated: Sep-01
Login to update fuel prices
SS:
Contact Vidalia Regional AirportMore FBO Information
 
Add another FBO Facility Photos Catering Weather Repair Courtesy Rental Type 100LL JetA JetA+ MOGAS 8087
Services Transportation Aviation Fuel Prices: Prices include tax


GlobalAir.com Airport Resource Center model-print
model-print
model-print
model-print